Cheyenne, WY

17:54 MDT le 28 septembre 2016 (GMT -0600)
Park Addition | | Change Station

Alt. 6119 ft 41.14 °N, 104.84 °W | Updated 11 seconds ago

Clear
Ciel dégagé
73.6 ° F
Paraît 76 ° F
N
2.9
Vent Variable Vent de SSO
Gusts 4.9 mph

Aujourd'hui
Haut(e) -- | Bas -- ° F
--% Risque de précip.
Hier
Haut(e) -- | Bas -- ° F
Precip. -- pouce
Pression 30.19 pouce
Visibilité 10.0 Miles terrestres
Nuages Ciel dégagé
indice de chaleur 76 ° F
Point de rosée 31 ° F
Humidité 21%
Précipitations 0.00 pouce
Profondeur de la couche neigeuse Non disponible.
6:53 AM 6:45 PM
Lune descendante, 4% visible
METAR KFEW 282258Z AUTO 14010G15KT 10SM CLR 24/00 A3037 RMK AO2 SLP224 T02361002 $
Pression 30.19 pouce
Visibilité 10.0 Miles terrestres
Nuages Ciel dégagé
indice de chaleur 76 ° F
Point de rosée 31 ° F
Humidité 21%
Précipitations 0.00 pouce
Profondeur de la couche neigeuse Non disponible.
6:53 AM 6:45 PM
Lune descendante, 4% visible
METAR KFEW 282258Z AUTO 14010G15KT 10SM CLR 24/00 A3037 RMK AO2 SLP224 T02361002 $

10-Day Weather Forecast

Almanac

Astronomie

Sep. 28, 2016 Lever Coucher
Temps réel
Crépuscule civil
Crépuscule nautique
Crépuscule astronomique
Lune
Durée de lumière visible
Longueur du jour
Tomorrow will be .
, % of the Moon is Illuminated

Extrêmes aujourd'hui

State Highs State Lows

Community

WunderPhotos

Upload Photos

1,942,354 Photos téléchargées !

WunderBlog® & News

Nearby

Qualité de l'air

  Qualité de l'air Indice de la qualité de l'air Polluant
Not available.

Épaisseur de neige

Station Depth Altitude

Activité sismique

Ville Distance Mag. Time & Date
Minimum magnitude displayed is 2.5.

Températures des eaux côtières

Lieu Température

Stations

Stations météo à proximité

Emplacement de la station Température Refroidissement éolien Point de rosée Humidité Vent Precip. Alt. Mise à jour Type
                   

Watches & Warnings

There are currently no watches in effect.